SAS963 EKCH-LSZH
Flight info
| Callsign | SAS963 |
|---|---|
| Flight time | N/A |
| Altitude | 40000 |
| Route | NEXEN T503 GIMRU DCT MICOS DCT OTMON DCT SWALM DCT OMOGI/N0456F410 T721 RILAX |
| Aircraft | A343/H-SDE3FGHIJ3J4J5M1P2RWXYZ/LB1D1 |
Departure
| Time | 2026-04-22 10:45 |
|---|---|
| Airport | Copenhagen Kastrup Airport (EKCH) |
Arrival
| Time | N/A |
|---|---|
| Airport | Zürich Airport (LSZH) |
| Time | Latitude | Longitude | Altitude | Speed | Heading |
|---|---|---|---|---|---|
| 2026-04-22 10:19 | 55.62422 | 12.64911 | 28 ft | 0 kts | 89° |
| 2026-04-22 10:26 | 55.62422 | 12.64887 | 28 ft | 4 kts | 89° |
| 2026-04-22 10:26 | 55.62421 | 12.64845 | 28 ft | 2 kts | 89° |
| 2026-04-22 10:26 | 55.62424 | 12.64804 | 28 ft | 4 kts | 126° |
| 2026-04-22 10:26 | 55.62444 | 12.64780 | 28 ft | 4 kts | 169° |
| 2026-04-22 10:27 | 55.62469 | 12.64774 | 28 ft | 4 kts | 176° |
| 2026-04-22 10:27 | 55.62490 | 12.64772 | 28 ft | 4 kts | 179° |
| 2026-04-22 10:27 | 55.62510 | 12.64772 | 28 ft | 0 kts | 179° |
| 2026-04-22 10:32 | 55.62508 | 12.64772 | 28 ft | 1 kts | 179° |
| 2026-04-22 10:32 | 55.62498 | 12.64772 | 28 ft | 1 kts | 179° |
| 2026-04-22 10:33 | 55.62486 | 12.64773 | 28 ft | 3 kts | 179° |
| 2026-04-22 10:33 | 55.62417 | 12.64779 | 28 ft | 14 kts | 177° |
| 2026-04-22 10:33 | 55.62314 | 12.64789 | 28 ft | 15 kts | 166° |
| 2026-04-22 10:33 | 55.62248 | 12.64918 | 28 ft | 13 kts | 122° |
| 2026-04-22 10:34 | 55.62241 | 12.64937 | 28 ft | 2 kts | 122° |
| 2026-04-22 10:34 | 55.62237 | 12.64948 | 28 ft | 0 kts | 122° |
| 2026-04-22 10:34 | 55.62236 | 12.64950 | 28 ft | 1 kts | 122° |
| 2026-04-22 10:35 | 55.62199 | 12.65051 | 28 ft | 14 kts | 123° |
| 2026-04-22 10:35 | 55.62123 | 12.65078 | 28 ft | 12 kts | 204° |
| 2026-04-22 10:35 | 55.62040 | 12.64982 | 28 ft | 19 kts | 214° |
| 2026-04-22 10:35 | 55.61924 | 12.64843 | 28 ft | 21 kts | 214° |
| 2026-04-22 10:36 | 55.61797 | 12.64704 | 28 ft | 22 kts | 212° |
| 2026-04-22 10:36 | 55.61665 | 12.64551 | 28 ft | 23 kts | 213° |
| 2026-04-22 10:36 | 55.61527 | 12.64392 | 28 ft | 24 kts | 212° |
| 2026-04-22 10:36 | 55.61398 | 12.64245 | 28 ft | 20 kts | 213° |
| 2026-04-22 10:37 | 55.61276 | 12.64105 | 28 ft | 22 kts | 213° |
| 2026-04-22 10:37 | 55.61013 | 12.63798 | 28 ft | 24 kts | 214° |
| 2026-04-22 10:37 | 55.60871 | 12.63634 | 28 ft | 25 kts | 212° |
| 2026-04-22 10:38 | 55.60742 | 12.63494 | 28 ft | 21 kts | 211° |
| 2026-04-22 10:38 | 55.60622 | 12.63338 | 28 ft | 22 kts | 221° |
| 2026-04-22 10:38 | 55.60519 | 12.63178 | 28 ft | 16 kts | 221° |
| 2026-04-22 10:38 | 55.60435 | 12.63124 | 28 ft | 9 kts | 164° |
| 2026-04-22 10:39 | 55.60411 | 12.63152 | 28 ft | 0 kts | 140° |
| 2026-04-22 10:39 | 55.60410 | 12.63154 | 28 ft | 1 kts | 140° |
| 2026-04-22 10:39 | 55.60385 | 12.63196 | 28 ft | 10 kts | 133° |
| 2026-04-22 10:40 | 55.60347 | 12.63315 | 30 ft | 8 kts | 90° |
| 2026-04-22 10:40 | 55.60373 | 12.63398 | 30 ft | 11 kts | 47° |
| 2026-04-22 10:40 | 55.60390 | 12.63425 | 29 ft | 0 kts | 41° |
| 2026-04-22 10:44 | 55.60391 | 12.63427 | 29 ft | 0 kts | 41° |
| 2026-04-22 10:44 | 55.60441 | 12.63504 | 28 ft | 38 kts | 41° |
| 2026-04-22 10:44 | 55.60821 | 12.64086 | 30 ft | 104 kts | 41° |
| 2026-04-22 10:44 | 55.61503 | 12.65148 | 34 ft | 156 kts | 40° |
| 2026-04-22 10:45 | 55.62343 | 12.66441 | 576 ft | 161 kts | 35° |
| 2026-04-22 10:45 | 55.63197 | 12.67776 | 1202 ft | 168 kts | 36° |
| 2026-04-22 10:45 | 55.64152 | 12.69316 | 1529 ft | 206 kts | 38° |
| 2026-04-22 10:45 | 55.65264 | 12.71170 | 2179 ft | 231 kts | 44° |
| 2026-04-22 10:46 | 55.65961 | 12.73823 | 3184 ft | 250 kts | 75° |
| 2026-04-22 10:46 | 55.65836 | 12.76974 | 4231 ft | 268 kts | 104° |
| 2026-04-22 10:46 | 55.64853 | 12.79824 | 5348 ft | 278 kts | 133° |
| 2026-04-22 10:46 | 55.63298 | 12.81934 | 6334 ft | 286 kts | 147° |
| 2026-04-22 10:47 | 55.61464 | 12.83313 | 6963 ft | 289 kts | 168° |
| 2026-04-22 10:47 | 55.59473 | 12.83186 | 7249 ft | 288 kts | 199° |
| 2026-04-22 10:47 | 55.57768 | 12.81410 | 7292 ft | 286 kts | 223° |
| 2026-04-22 10:47 | 55.56289 | 12.79053 | 7345 ft | 286 kts | 226° |
| 2026-04-22 10:48 | 55.54845 | 12.76667 | 7757 ft | 290 kts | 225° |
| 2026-04-22 10:48 | 55.53353 | 12.74237 | 8684 ft | 293 kts | 225° |
| 2026-04-22 10:48 | 55.51837 | 12.71800 | 9727 ft | 296 kts | 225° |
| 2026-04-22 10:48 | 55.50298 | 12.69344 | 10632 ft | 302 kts | 224° |
| 2026-04-22 10:49 | 55.48684 | 12.66778 | 11092 ft | 323 kts | 224° |
| 2026-04-22 10:49 | 55.46962 | 12.64049 | 11533 ft | 340 kts | 224° |
| 2026-04-22 10:49 | 55.45173 | 12.61229 | 12207 ft | 349 kts | 223° |
| 2026-04-22 10:49 | 55.43342 | 12.58350 | 12981 ft | 356 kts | 223° |
| 2026-04-22 10:50 | 55.41478 | 12.55421 | 13765 ft | 361 kts | 223° |
| 2026-04-22 10:50 | 55.39588 | 12.52456 | 14524 ft | 367 kts | 223° |
| 2026-04-22 10:50 | 55.37670 | 12.49451 | 15261 ft | 371 kts | 223° |
| 2026-04-22 10:50 | 55.35732 | 12.46417 | 16032 ft | 376 kts | 223° |
| 2026-04-22 10:51 | 55.33768 | 12.43348 | 16768 ft | 380 kts | 223° |
| 2026-04-22 10:51 | 55.31780 | 12.40246 | 17524 ft | 384 kts | 222° |
| 2026-04-22 10:51 | 55.29770 | 12.37114 | 18285 ft | 388 kts | 222° |
| 2026-04-22 10:51 | 55.27742 | 12.33955 | 18975 ft | 392 kts | 222° |
| 2026-04-22 10:52 | 55.25685 | 12.30758 | 19607 ft | 396 kts | 222° |
| 2026-04-22 10:52 | 55.23612 | 12.27541 | 20241 ft | 401 kts | 222° |
| 2026-04-22 10:52 | 55.21515 | 12.24291 | 20871 ft | 405 kts | 222° |
| 2026-04-22 10:52 | 55.19393 | 12.21008 | 21496 ft | 409 kts | 221° |
| 2026-04-22 10:53 | 55.17255 | 12.17704 | 22112 ft | 412 kts | 221° |
| 2026-04-22 10:53 | 55.15090 | 12.14364 | 22690 ft | 417 kts | 222° |
| 2026-04-22 10:53 | 55.12902 | 12.10992 | 23228 ft | 422 kts | 222° |
| 2026-04-22 10:53 | 55.10692 | 12.07592 | 23816 ft | 425 kts | 222° |
| 2026-04-22 10:54 | 55.08460 | 12.04164 | 24326 ft | 429 kts | 222° |
| 2026-04-22 10:54 | 55.06210 | 12.00713 | 24824 ft | 431 kts | 222° |
| 2026-04-22 10:54 | 55.03949 | 11.97252 | 25311 ft | 434 kts | 221° |
| 2026-04-22 10:54 | 55.01701 | 11.93815 | 25782 ft | 437 kts | 221° |
| 2026-04-22 10:55 | 54.99408 | 11.90315 | 26241 ft | 440 kts | 221° |
| 2026-04-22 10:55 | 54.97096 | 11.86792 | 26711 ft | 443 kts | 221° |
| 2026-04-22 10:55 | 54.94767 | 11.83247 | 27170 ft | 445 kts | 221° |
| 2026-04-22 10:55 | 54.92422 | 11.79685 | 27585 ft | 449 kts | 221° |
| 2026-04-22 10:56 | 54.90856 | 11.77310 | 27853 ft | 451 kts | 221° |
| 2026-04-22 10:56 | 54.88485 | 11.73717 | 28288 ft | 454 kts | 221° |
| 2026-04-22 10:56 | 54.86098 | 11.70106 | 28728 ft | 456 kts | 221° |
| 2026-04-22 10:56 | 54.83697 | 11.66481 | 29131 ft | 459 kts | 221° |
| 2026-04-22 10:57 | 54.81258 | 11.62870 | 29531 ft | 462 kts | 218° |
| 2026-04-22 10:57 | 54.78710 | 11.59459 | 29930 ft | 464 kts | 217° |
| 2026-04-22 10:57 | 54.76099 | 11.56139 | 30331 ft | 467 kts | 216° |
| 2026-04-22 10:57 | 54.73450 | 11.52855 | 30655 ft | 469 kts | 215° |
| 2026-04-22 10:58 | 54.70779 | 11.49576 | 30969 ft | 472 kts | 215° |
| 2026-04-22 10:58 | 54.68091 | 11.46280 | 31247 ft | 475 kts | 215° |
| 2026-04-22 10:58 | 54.65394 | 11.42963 | 31561 ft | 478 kts | 215° |
| 2026-04-22 10:58 | 54.62683 | 11.39621 | 31853 ft | 480 kts | 215° |
| 2026-04-22 10:59 | 54.59956 | 11.36255 | 32145 ft | 482 kts | 215° |
| 2026-04-22 10:59 | 54.57221 | 11.32879 | 32388 ft | 485 kts | 215° |
| 2026-04-22 10:59 | 54.54470 | 11.29484 | 32661 ft | 487 kts | 215° |
| 2026-04-22 10:59 | 54.51709 | 11.26099 | 33049 ft | 487 kts | 214° |
| 2026-04-22 11:00 | 54.48947 | 11.22739 | 33467 ft | 486 kts | 214° |
| 2026-04-22 11:00 | 54.46185 | 11.19391 | 33852 ft | 485 kts | 214° |
| 2026-04-22 11:00 | 54.43429 | 11.16059 | 34275 ft | 484 kts | 214° |
| 2026-04-22 11:00 | 54.40512 | 11.13200 | 34564 ft | 482 kts | 201° |
| 2026-04-22 11:01 | 54.37324 | 11.11503 | 34874 ft | 478 kts | 188° |
| 2026-04-22 11:01 | 54.34078 | 11.10280 | 35099 ft | 481 kts | 198° |
| 2026-04-22 11:01 | 54.30982 | 11.08094 | 35397 ft | 481 kts | 202° |
| 2026-04-22 11:01 | 54.27910 | 11.05812 | 35677 ft | 481 kts | 200° |
| 2026-04-22 11:02 | 54.24809 | 11.03649 | 35942 ft | 481 kts | 200° |
| 2026-04-22 11:02 | 54.21698 | 11.01532 | 36259 ft | 481 kts | 199° |
| 2026-04-22 11:02 | 54.18572 | 10.99501 | 36537 ft | 480 kts | 198° |
| 2026-04-22 11:02 | 54.15433 | 10.97549 | 36803 ft | 481 kts | 198° |
| 2026-04-22 11:03 | 54.12279 | 10.95651 | 37059 ft | 481 kts | 197° |
| 2026-04-22 11:03 | 54.09159 | 10.93809 | 37320 ft | 481 kts | 197° |
| 2026-04-22 11:03 | 54.05996 | 10.91959 | 37583 ft | 481 kts | 197° |
| 2026-04-22 11:03 | 54.02832 | 10.90115 | 37842 ft | 481 kts | 197° |
| 2026-04-22 11:04 | 53.99659 | 10.88266 | 38104 ft | 481 kts | 197° |
| 2026-04-22 11:04 | 53.96491 | 10.86419 | 38382 ft | 481 kts | 197° |
| 2026-04-22 11:04 | 53.93321 | 10.84571 | 38631 ft | 481 kts | 197° |
| 2026-04-22 11:04 | 53.90156 | 10.82727 | 38874 ft | 481 kts | 197° |
| 2026-04-22 11:05 | 53.86992 | 10.80884 | 39098 ft | 481 kts | 197° |
| 2026-04-22 11:05 | 53.83818 | 10.79039 | 39262 ft | 482 kts | 197° |
| 2026-04-22 11:05 | 53.80652 | 10.77201 | 39462 ft | 481 kts | 197° |
| 2026-04-22 11:05 | 53.77483 | 10.75365 | 39646 ft | 481 kts | 197° |
| 2026-04-22 11:06 | 53.74314 | 10.73532 | 39837 ft | 481 kts | 197° |
| 2026-04-22 11:06 | 53.71145 | 10.71702 | 40000 ft | 482 kts | 197° |
| 2026-04-22 11:06 | 53.67975 | 10.69874 | 40179 ft | 482 kts | 197° |
| 2026-04-22 11:06 | 53.64848 | 10.67853 | 40294 ft | 483 kts | 208° |
| 2026-04-22 11:07 | 53.61956 | 10.64936 | 40360 ft | 486 kts | 209° |
| 2026-04-22 11:07 | 53.55754 | 10.60292 | 40370 ft | 489 kts | 199° |
| 2026-04-22 11:08 | 53.49341 | 10.56504 | 40365 ft | 487 kts | 197° |
| 2026-04-22 11:08 | 53.42918 | 10.52870 | 40367 ft | 487 kts | 197° |
| 2026-04-22 11:09 | 53.36501 | 10.49192 | 40369 ft | 487 kts | 198° |
| 2026-04-22 11:09 | 53.30137 | 10.45505 | 40366 ft | 487 kts | 198° |
| 2026-04-22 11:10 | 53.23733 | 10.41791 | 40363 ft | 487 kts | 198° |
| 2026-04-22 11:10 | 53.17336 | 10.38094 | 40362 ft | 486 kts | 198° |
| 2026-04-22 11:11 | 53.10939 | 10.34411 | 40363 ft | 486 kts | 198° |
| 2026-04-22 11:11 | 53.04540 | 10.30739 | 40373 ft | 486 kts | 198° |
| 2026-04-22 11:12 | 52.98141 | 10.27079 | 40371 ft | 486 kts | 198° |
| 2026-04-22 11:12 | 52.91743 | 10.23431 | 40376 ft | 486 kts | 198° |
| 2026-04-22 11:13 | 52.85338 | 10.19790 | 40373 ft | 486 kts | 198° |
| 2026-04-22 11:13 | 52.78935 | 10.16162 | 40373 ft | 486 kts | 198° |
| 2026-04-22 11:14 | 52.72575 | 10.12570 | 40371 ft | 486 kts | 198° |
| 2026-04-22 11:14 | 52.66172 | 10.08964 | 40374 ft | 486 kts | 198° |
| 2026-04-22 11:15 | 52.59774 | 10.05373 | 40376 ft | 486 kts | 198° |
| 2026-04-22 11:15 | 52.53372 | 10.01789 | 40379 ft | 486 kts | 198° |
| 2026-04-22 11:16 | 52.46964 | 9.98214 | 40373 ft | 486 kts | 198° |
| 2026-04-22 11:16 | 52.40566 | 9.94655 | 40396 ft | 485 kts | 198° |
| 2026-04-22 11:17 | 52.34166 | 9.91106 | 40400 ft | 485 kts | 198° |
| 2026-04-22 11:17 | 52.27771 | 9.87571 | 40391 ft | 486 kts | 198° |
| 2026-04-22 11:18 | 52.21363 | 9.84039 | 40392 ft | 486 kts | 198° |
| 2026-04-22 11:18 | 52.15002 | 9.80543 | 40384 ft | 486 kts | 198° |
| 2026-04-22 11:19 | 52.08595 | 9.77033 | 40383 ft | 486 kts | 198° |
| 2026-04-22 11:19 | 52.02187 | 9.73533 | 40379 ft | 485 kts | 198° |
| 2026-04-22 11:20 | 51.95781 | 9.70044 | 40380 ft | 485 kts | 198° |
| 2026-04-22 11:20 | 51.89377 | 9.66568 | 40382 ft | 485 kts | 198° |
| 2026-04-22 11:21 | 51.82967 | 9.63100 | 40375 ft | 485 kts | 198° |
| 2026-04-22 11:21 | 51.76559 | 9.59644 | 40374 ft | 485 kts | 198° |
| 2026-04-22 11:22 | 51.70152 | 9.56198 | 40371 ft | 485 kts | 198° |
| 2026-04-22 11:22 | 51.63749 | 9.52763 | 40375 ft | 485 kts | 198° |
| 2026-04-22 11:23 | 51.57334 | 9.49332 | 40375 ft | 486 kts | 198° |
| 2026-04-22 11:23 | 51.50920 | 9.45912 | 40375 ft | 486 kts | 198° |
| 2026-04-22 11:24 | 51.44500 | 9.42499 | 40369 ft | 486 kts | 198° |
| 2026-04-22 11:24 | 51.38121 | 9.39119 | 40375 ft | 486 kts | 198° |
| 2026-04-22 11:25 | 51.31697 | 9.35726 | 40364 ft | 486 kts | 198° |
| 2026-04-22 11:25 | 51.25102 | 9.33416 | 40374 ft | 485 kts | 189° |
| 2026-04-22 11:26 | 51.18429 | 9.31727 | 40376 ft | 486 kts | 188° |
| 2026-04-22 11:26 | 51.11739 | 9.30143 | 40371 ft | 486 kts | 188° |
| 2026-04-22 11:27 | 51.05053 | 9.28554 | 40370 ft | 486 kts | 188° |
| 2026-04-22 11:27 | 50.98360 | 9.26945 | 40369 ft | 486 kts | 188° |
| 2026-04-22 11:28 | 50.91671 | 9.25334 | 40364 ft | 487 kts | 188° |
| 2026-04-22 11:28 | 50.84966 | 9.23723 | 40360 ft | 488 kts | 188° |
| 2026-04-22 11:29 | 50.78249 | 9.22115 | 40349 ft | 488 kts | 188° |
| 2026-04-22 11:29 | 50.71536 | 9.20512 | 40348 ft | 488 kts | 188° |
| 2026-04-22 11:30 | 50.64814 | 9.19029 | 40342 ft | 488 kts | 187° |
| 2026-04-22 11:30 | 50.58169 | 9.17696 | 40339 ft | 488 kts | 187° |
| 2026-04-22 11:31 | 50.51429 | 9.16337 | 40337 ft | 488 kts | 187° |
| 2026-04-22 11:31 | 50.44694 | 9.14956 | 40333 ft | 488 kts | 187° |
| 2026-04-22 11:32 | 50.37964 | 9.13572 | 40331 ft | 488 kts | 187° |
| 2026-04-22 11:32 | 50.31238 | 9.12189 | 40325 ft | 488 kts | 187° |
| 2026-04-22 11:33 | 50.24511 | 9.10812 | 40323 ft | 488 kts | 187° |
| 2026-04-22 11:33 | 50.17782 | 9.09439 | 40322 ft | 488 kts | 187° |
| 2026-04-22 11:34 | 50.11051 | 9.08069 | 40318 ft | 488 kts | 187° |
| 2026-04-22 11:34 | 50.04317 | 9.06702 | 40314 ft | 487 kts | 187° |
| 2026-04-22 11:35 | 49.97601 | 9.05342 | 40312 ft | 487 kts | 187° |
| 2026-04-22 11:35 | 49.90876 | 9.03984 | 40312 ft | 487 kts | 187° |
| 2026-04-22 11:36 | 49.84149 | 9.02631 | 40303 ft | 487 kts | 187° |
| 2026-04-22 11:36 | 49.77429 | 9.01284 | 40303 ft | 487 kts | 188° |
| 2026-04-22 11:37 | 49.70708 | 8.99940 | 40297 ft | 487 kts | 188° |
| 2026-04-22 11:37 | 49.63993 | 8.98590 | 40286 ft | 487 kts | 188° |
| 2026-04-22 11:37 | 49.60695 | 8.97784 | 40033 ft | 483 kts | 191° |
| 2026-04-22 11:38 | 49.57405 | 8.96864 | 39765 ft | 478 kts | 192° |
| 2026-04-22 11:38 | 49.54132 | 8.95907 | 39268 ft | 479 kts | 192° |
| 2026-04-22 11:38 | 49.47561 | 8.93999 | 38137 ft | 480 kts | 192° |
| 2026-04-22 11:39 | 49.44274 | 8.93072 | 37618 ft | 479 kts | 191° |
| 2026-04-22 11:39 | 49.40997 | 8.92163 | 37106 ft | 478 kts | 191° |
| 2026-04-22 11:39 | 49.37716 | 8.91264 | 36569 ft | 478 kts | 191° |
| 2026-04-22 11:39 | 49.34437 | 8.90371 | 36007 ft | 478 kts | 191° |
| 2026-04-22 11:40 | 49.31162 | 8.89481 | 35427 ft | 478 kts | 192° |
| 2026-04-22 11:40 | 49.27917 | 8.88601 | 34817 ft | 480 kts | 192° |
| 2026-04-22 11:40 | 49.24621 | 8.87708 | 34114 ft | 482 kts | 192° |
| 2026-04-22 11:40 | 49.21316 | 8.86812 | 33373 ft | 483 kts | 191° |
| 2026-04-22 11:41 | 49.18009 | 8.85913 | 32659 ft | 483 kts | 192° |
| 2026-04-22 11:41 | 49.14705 | 8.85010 | 31936 ft | 483 kts | 192° |
| 2026-04-22 11:41 | 49.11396 | 8.84106 | 31335 ft | 481 kts | 191° |
| 2026-04-22 11:41 | 49.08122 | 8.83215 | 30844 ft | 476 kts | 191° |
| 2026-04-22 11:42 | 49.04874 | 8.82331 | 30332 ft | 472 kts | 191° |
| 2026-04-22 11:42 | 49.01657 | 8.81458 | 29732 ft | 467 kts | 191° |
| 2026-04-22 11:42 | 48.98475 | 8.80595 | 29191 ft | 462 kts | 191° |
| 2026-04-22 11:42 | 48.96380 | 8.80027 | 28834 ft | 459 kts | 191° |